sensor_id;sensor_type;location;lat;lon;timestamp;temperature;humidity
23347;DHT22;36852;45.466;11.066;2022-11-20T00:01:32;11.70;99.90
23347;DHT22;36852;45.466;11.066;2022-11-20T00:04:01;11.70;99.90
23347;DHT22;36852;45.466;11.066;2022-11-20T00:06:30;11.70;99.90
23347;DHT22;36852;45.466;11.066;2022-11-20T00:08:59;11.70;99.90
23347;DHT22;36852;45.466;11.066;2022-11-20T00:11:29;11.60;99.90
23347;DHT22;36852;45.466;11.066;2022-11-20T00:14:00;11.60;99.90
23347;DHT22;36852;45.466;11.066;2022-11-20T00:16:30;11.60;99.90
23347;DHT22;36852;45.466;11.066;2022-11-20T00:18:59;11.60;99.90
23347;DHT22;36852;45.466;11.066;2022-11-20T00:21:28;11.60;99.90
23347;DHT22;36852;45.466;11.066;2022-11-20T00:23:57;11.50;99.90
23347;DHT22;36852;45.466;11.066;2022-11-20T00:26:26;11.50;99.90
23347;DHT22;36852;45.466;11.066;2022-11-20T00:28:59;11.50;99.90
23347;DHT22;36852;45.466;11.066;2022-11-20T00:31:29;11.50;99.90
23347;DHT22;36852;45.466;11.066;2022-11-20T00:33:57;11.50;99.90
23347;DHT22;36852;45.466;11.066;2022-11-20T00:36:27;11.50;99.90
23347;DHT22;36852;45.466;11.066;2022-11-20T00:38:57;11.50;99.90
23347;DHT22;36852;45.466;11.066;2022-11-20T00:41:28;11.50;99.90
23347;DHT22;36852;45.466;11.066;2022-11-20T00:43:57;11.50;99.90
23347;DHT22;36852;45.466;11.066;2022-11-20T00:46:26;11.50;99.90
23347;DHT22;36852;45.466;11.066;2022-11-20T00:48:55;11.50;99.90
23347;DHT22;36852;45.466;11.066;2022-11-20T00:54:06;11.50;99.90
23347;DHT22;36852;45.466;11.066;2022-11-20T00:56:35;11.50;99.90
23347;DHT22;36852;45.466;11.066;2022-11-20T00:59:03;11.50;99.90
23347;DHT22;36852;45.466;11.066;2022-11-20T01:01:31;11.50;99.90
23347;DHT22;36852;45.466;11.066;2022-11-20T01:03:59;11.50;99.90
23347;DHT22;36852;45.466;11.066;2022-11-20T01:06:33;11.50;99.90
23347;DHT22;36852;45.466;11.066;2022-11-20T01:09:07;11.40;99.90
23347;DHT22;36852;45.466;11.066;2022-11-20T01:11:37;11.50;99.90
23347;DHT22;36852;45.466;11.066;2022-11-20T01:14:07;11.50;99.90
23347;DHT22;36852;45.466;11.066;2022-11-20T01:16:42;11.50;99.90
23347;DHT22;36852;45.466;11.066;2022-11-20T01:19:13;11.50;99.90
23347;DHT22;36852;45.466;11.066;2022-11-20T01:21:45;11.50;99.90
23347;DHT22;36852;45.466;11.066;2022-11-20T01:24:15;11.40;99.90
23347;DHT22;36852;45.466;11.066;2022-11-20T01:26:48;11.50;99.90
23347;DHT22;36852;45.466;11.066;2022-11-20T01:29:19;11.40;99.90
23347;DHT22;36852;45.466;11.066;2022-11-20T01:31:49;11.40;99.90
23347;DHT22;36852;45.466;11.066;2022-11-20T01:34:19;11.40;99.90
23347;DHT22;36852;45.466;11.066;2022-11-20T01:36:48;11.40;99.90
23347;DHT22;36852;45.466;11.066;2022-11-20T01:39:20;11.40;99.90
23347;DHT22;36852;45.466;11.066;2022-11-20T01:41:50;11.30;99.90
23347;DHT22;36852;45.466;11.066;2022-11-20T01:45:00;11.30;99.90
23347;DHT22;36852;45.466;11.066;2022-11-20T01:47:37;11.30;99.90
23347;DHT22;36852;45.466;11.066;2022-11-20T01:50:15;11.30;99.90
23347;DHT22;36852;45.466;11.066;2022-11-20T01:52:48;11.30;99.90
23347;DHT22;36852;45.466;11.066;2022-11-20T01:55:20;11.20;99.90
23347;DHT22;36852;45.466;11.066;2022-11-20T01:57:48;11.20;99.90
23347;DHT22;36852;45.466;11.066;2022-11-20T02:00:18;11.20;99.90
23347;DHT22;36852;45.466;11.066;2022-11-20T02:02:50;11.20;99.90
23347;DHT22;36852;45.466;11.066;2022-11-20T02:05:25;11.20;99.90
23347;DHT22;36852;45.466;11.066;2022-11-20T02:07:54;11.20;99.90
23347;DHT22;36852;45.466;11.066;2022-11-20T02:10:23;11.20;99.90
23347;DHT22;36852;45.466;11.066;2022-11-20T02:12:52;11.20;99.90
23347;DHT22;36852;45.466;11.066;2022-11-20T02:15:41;11.20;99.90
23347;DHT22;36852;45.466;11.066;2022-11-20T02:18:11;11.20;99.90
23347;DHT22;36852;45.466;11.066;2022-11-20T02:20:42;11.20;99.90
23347;DHT22;36852;45.466;11.066;2022-11-20T02:26:02;11.20;99.90
23347;DHT22;36852;45.466;11.066;2022-11-20T02:28:32;11.10;99.90
23347;DHT22;36852;45.466;11.066;2022-11-20T02:31:06;11.10;99.90
23347;DHT22;36852;45.466;11.066;2022-11-20T02:33:35;11.10;99.90
23347;DHT22;36852;45.466;11.066;2022-11-20T02:36:03;11.10;99.90
23347;DHT22;36852;45.466;11.066;2022-11-20T02:38:31;11.10;99.90
23347;DHT22;36852;45.466;11.066;2022-11-20T02:40:59;11.10;99.90
23347;DHT22;36852;45.466;11.066;2022-11-20T02:43:27;11.10;99.90
23347;DHT22;36852;45.466;11.066;2022-11-20T02:45:56;11.10;99.90
23347;DHT22;36852;45.466;11.066;2022-11-20T02:48:24;11.10;99.90
23347;DHT22;36852;45.466;11.066;2022-11-20T02:50:54;11.10;99.90
23347;DHT22;36852;45.466;11.066;2022-11-20T02:53:22;11.10;99.90
23347;DHT22;36852;45.466;11.066;2022-11-20T02:55:55;11.10;99.90
23347;DHT22;36852;45.466;11.066;2022-11-20T02:58:23;11.00;99.90
23347;DHT22;36852;45.466;11.066;2022-11-20T03:00:52;11.00;99.90
23347;DHT22;36852;45.466;11.066;2022-11-20T03:03:20;11.00;99.90
23347;DHT22;36852;45.466;11.066;2022-11-20T03:05:48;11.00;99.90
23347;DHT22;36852;45.466;11.066;2022-11-20T03:08:16;11.00;99.90
23347;DHT22;36852;45.466;11.066;2022-11-20T03:10:44;11.00;99.90
23347;DHT22;36852;45.466;11.066;2022-11-20T03:13:14;11.00;99.90
23347;DHT22;36852;45.466;11.066;2022-11-20T03:15:43;11.00;99.90
23347;DHT22;36852;45.466;11.066;2022-11-20T03:18:11;11.00;99.90
23347;DHT22;36852;45.466;11.066;2022-11-20T03:20:41;11.00;99.90
23347;DHT22;36852;45.466;11.066;2022-11-20T03:23:09;10.90;99.90
23347;DHT22;36852;45.466;11.066;2022-11-20T03:25:37;11.00;99.90
23347;DHT22;36852;45.466;11.066;2022-11-20T03:28:05;10.90;99.90
23347;DHT22;36852;45.466;11.066;2022-11-20T03:30:33;10.90;99.90
23347;DHT22;36852;45.466;11.066;2022-11-20T03:33:02;10.80;99.90
23347;DHT22;36852;45.466;11.066;2022-11-20T03:35:30;10.80;99.90
23347;DHT22;36852;45.466;11.066;2022-11-20T03:37:59;10.80;99.90
23347;DHT22;36852;45.466;11.066;2022-11-20T03:40:27;10.80;99.90
23347;DHT22;36852;45.466;11.066;2022-11-20T03:42:59;10.80;99.90
23347;DHT22;36852;45.466;11.066;2022-11-20T03:45:27;10.80;99.90
23347;DHT22;36852;45.466;11.066;2022-11-20T03:47:55;10.70;99.90
23347;DHT22;36852;45.466;11.066;2022-11-20T03:50:23;10.70;99.90
23347;DHT22;36852;45.466;11.066;2022-11-20T03:52:52;10.80;99.90
23347;DHT22;36852;45.466;11.066;2022-11-20T03:55:21;10.70;99.90
23347;DHT22;36852;45.466;11.066;2022-11-20T03:57:49;10.70;99.90
23347;DHT22;36852;45.466;11.066;2022-11-20T04:00:17;10.60;99.90
23347;DHT22;36852;45.466;11.066;2022-11-20T04:02:46;10.60;99.90
23347;DHT22;36852;45.466;11.066;2022-11-20T04:05:14;10.60;99.90
23347;DHT22;36852;45.466;11.066;2022-11-20T04:07:43;10.60;99.90
23347;DHT22;36852;45.466;11.066;2022-11-20T04:10:10;10.60;99.90
23347;DHT22;36852;45.466;11.066;2022-11-20T04:12:39;10.60;99.90
23347;DHT22;36852;45.466;11.066;2022-11-20T04:15:10;10.50;99.90
23347;DHT22;36852;45.466;11.066;2022-11-20T04:17:38;10.50;99.90
23347;DHT22;36852;45.466;11.066;2022-11-20T04:20:07;10.50;99.90
23347;DHT22;36852;45.466;11.066;2022-11-20T04:22:35;10.50;99.90
23347;DHT22;36852;45.466;11.066;2022-11-20T04:25:03;10.50;99.90
23347;DHT22;36852;45.466;11.066;2022-11-20T04:27:32;10.50;99.90
23347;DHT22;36852;45.466;11.066;2022-11-20T04:30:00;10.40;99.90
23347;DHT22;36852;45.466;11.066;2022-11-20T04:32:28;10.40;99.90
23347;DHT22;36852;45.466;11.066;2022-11-20T04:34:56;10.40;99.90
23347;DHT22;36852;45.466;11.066;2022-11-20T04:37:24;10.40;99.90
23347;DHT22;36852;45.466;11.066;2022-11-20T04:39:53;10.40;99.90
23347;DHT22;36852;45.466;11.066;2022-11-20T04:42:24;10.40;99.90
23347;DHT22;36852;45.466;11.066;2022-11-20T04:44:57;10.40;99.90
23347;DHT22;36852;45.466;11.066;2022-11-20T04:47:25;10.40;99.90
23347;DHT22;36852;45.466;11.066;2022-11-20T04:49:53;10.40;99.90
23347;DHT22;36852;45.466;11.066;2022-11-20T04:52:22;10.40;99.90
23347;DHT22;36852;45.466;11.066;2022-11-20T04:54:50;10.40;99.90
23347;DHT22;36852;45.466;11.066;2022-11-20T04:57:19;10.40;99.90
23347;DHT22;36852;45.466;11.066;2022-11-20T04:59:58;10.40;99.90
23347;DHT22;36852;45.466;11.066;2022-11-20T05:02:27;10.40;99.90
23347;DHT22;36852;45.466;11.066;2022-11-20T05:04:56;10.30;99.90
23347;DHT22;36852;45.466;11.066;2022-11-20T05:07:24;10.40;99.90
23347;DHT22;36852;45.466;11.066;2022-11-20T05:09:51;10.30;99.90
23347;DHT22;36852;45.466;11.066;2022-11-20T05:12:20;10.30;99.90
23347;DHT22;36852;45.466;11.066;2022-11-20T05:14:48;10.30;99.90
23347;DHT22;36852;45.466;11.066;2022-11-20T05:17:17;10.30;99.90
23347;DHT22;36852;45.466;11.066;2022-11-20T05:19:45;10.30;99.90
23347;DHT22;36852;45.466;11.066;2022-11-20T05:22:15;10.30;99.90
23347;DHT22;36852;45.466;11.066;2022-11-20T05:24:47;10.30;99.90
23347;DHT22;36852;45.466;11.066;2022-11-20T05:27:16;10.30;99.90
23347;DHT22;36852;45.466;11.066;2022-11-20T05:29:44;10.30;99.90
23347;DHT22;36852;45.466;11.066;2022-11-20T05:32:12;10.20;99.90
23347;DHT22;36852;45.466;11.066;2022-11-20T05:34:42;10.20;99.90
23347;DHT22;36852;45.466;11.066;2022-11-20T05:37:10;10.20;99.90
23347;DHT22;36852;45.466;11.066;2022-11-20T05:39:38;10.20;99.90
23347;DHT22;36852;45.466;11.066;2022-11-20T05:42:07;10.20;99.90
23347;DHT22;36852;45.466;11.066;2022-11-20T05:44:54;10.20;99.90
23347;DHT22;36852;45.466;11.066;2022-11-20T05:47:22;10.20;99.90
23347;DHT22;36852;45.466;11.066;2022-11-20T05:49:50;10.10;99.90
23347;DHT22;36852;45.466;11.066;2022-11-20T05:52:18;10.10;99.90
23347;DHT22;36852;45.466;11.066;2022-11-20T05:54:46;10.10;99.90
23347;DHT22;36852;45.466;11.066;2022-11-20T05:57:15;10.20;99.90
23347;DHT22;36852;45.466;11.066;2022-11-20T05:59:44;10.10;99.90
23347;DHT22;36852;45.466;11.066;2022-11-20T06:02:11;10.10;99.90
23347;DHT22;36852;45.466;11.066;2022-11-20T06:04:39;10.10;99.90
23347;DHT22;36852;45.466;11.066;2022-11-20T06:07:10;10.10;99.90
23347;DHT22;36852;45.466;11.066;2022-11-20T06:09:39;10.10;99.90
23347;DHT22;36852;45.466;11.066;2022-11-20T06:12:07;10.10;99.90
23347;DHT22;36852;45.466;11.066;2022-11-20T06:14:35;10.10;99.90
23347;DHT22;36852;45.466;11.066;2022-11-20T06:17:03;10.10;99.90
23347;DHT22;36852;45.466;11.066;2022-11-20T06:19:31;10.10;99.90
23347;DHT22;36852;45.466;11.066;2022-11-20T06:21:59;10.10;99.90
23347;DHT22;36852;45.466;11.066;2022-11-20T06:24:26;10.10;99.90
23347;DHT22;36852;45.466;11.066;2022-11-20T06:26:55;10.10;99.90
23347;DHT22;36852;45.466;11.066;2022-11-20T06:29:24;10.10;99.90
23347;DHT22;36852;45.466;11.066;2022-11-20T06:31:54;10.10;99.90
23347;DHT22;36852;45.466;11.066;2022-11-20T06:34:22;10.10;99.90
23347;DHT22;36852;45.466;11.066;2022-11-20T06:36:51;10.10;99.90
23347;DHT22;36852;45.466;11.066;2022-11-20T06:39:19;10.10;99.90
23347;DHT22;36852;45.466;11.066;2022-11-20T06:41:48;10.10;99.90
23347;DHT22;36852;45.466;11.066;2022-11-20T06:44:18;10.10;99.90
23347;DHT22;36852;45.466;11.066;2022-11-20T06:46:46;10.10;99.90
23347;DHT22;36852;45.466;11.066;2022-11-20T06:49:14;10.10;99.90
23347;DHT22;36852;45.466;11.066;2022-11-20T06:51:44;10.10;99.90
23347;DHT22;36852;45.466;11.066;2022-11-20T06:54:12;10.10;99.90
23347;DHT22;36852;45.466;11.066;2022-11-20T06:56:40;10.10;99.90
23347;DHT22;36852;45.466;11.066;2022-11-20T06:59:08;10.10;99.90
23347;DHT22;36852;45.466;11.066;2022-11-20T07:01:36;10.10;99.90
23347;DHT22;36852;45.466;11.066;2022-11-20T07:04:04;10.10;99.90
23347;DHT22;36852;45.466;11.066;2022-11-20T07:06:32;10.20;99.90
23347;DHT22;36852;45.466;11.066;2022-11-20T07:09:00;10.10;99.90
23347;DHT22;36852;45.466;11.066;2022-11-20T07:11:28;10.20;99.90
23347;DHT22;36852;45.466;11.066;2022-11-20T07:13:56;10.20;99.90
23347;DHT22;36852;45.466;11.066;2022-11-20T07:16:25;10.20;99.90
23347;DHT22;36852;45.466;11.066;2022-11-20T07:18:53;10.30;99.90
23347;DHT22;36852;45.466;11.066;2022-11-20T07:21:21;10.30;99.90
23347;DHT22;36852;45.466;11.066;2022-11-20T07:23:52;10.30;99.90
23347;DHT22;36852;45.466;11.066;2022-11-20T07:26:20;10.30;99.90
23347;DHT22;36852;45.466;11.066;2022-11-20T07:28:49;10.30;99.90
23347;DHT22;36852;45.466;11.066;2022-11-20T07:31:17;10.40;99.90
23347;DHT22;36852;45.466;11.066;2022-11-20T07:33:46;10.50;99.90
23347;DHT22;36852;45.466;11.066;2022-11-20T07:36:14;10.60;99.90
23347;DHT22;36852;45.466;11.066;2022-11-20T07:38:43;10.60;99.90
23347;DHT22;36852;45.466;11.066;2022-11-20T07:41:11;10.70;99.90
23347;DHT22;36852;45.466;11.066;2022-11-20T07:43:39;10.70;99.90
23347;DHT22;36852;45.466;11.066;2022-11-20T07:46:07;10.80;99.90
23347;DHT22;36852;45.466;11.066;2022-11-20T07:48:35;10.80;99.90
23347;DHT22;36852;45.466;11.066;2022-11-20T07:51:04;10.80;99.90
23347;DHT22;36852;45.466;11.066;2022-11-20T07:53:32;10.90;99.90
23347;DHT22;36852;45.466;11.066;2022-11-20T07:56:01;10.90;99.90
23347;DHT22;36852;45.466;11.066;2022-11-20T07:58:29;11.00;99.90
23347;DHT22;36852;45.466;11.066;2022-11-20T08:01:02;11.00;99.90
23347;DHT22;36852;45.466;11.066;2022-11-20T08:03:29;11.00;99.90
23347;DHT22;36852;45.466;11.066;2022-11-20T08:06:01;11.00;99.90
23347;DHT22;36852;45.466;11.066;2022-11-20T08:08:29;11.00;99.90
23347;DHT22;36852;45.466;11.066;2022-11-20T08:10:59;11.10;99.90
23347;DHT22;36852;45.466;11.066;2022-11-20T08:13:45;11.10;99.90
23347;DHT22;36852;45.466;11.066;2022-11-20T08:16:32;11.10;99.90
23347;DHT22;36852;45.466;11.066;2022-11-20T08:19:00;11.20;99.90
23347;DHT22;36852;45.466;11.066;2022-11-20T08:21:28;11.20;99.90
23347;DHT22;36852;45.466;11.066;2022-11-20T08:23:59;11.20;99.90
23347;DHT22;36852;45.466;11.066;2022-11-20T08:26:28;11.20;99.90
23347;DHT22;36852;45.466;11.066;2022-11-20T08:28:57;11.30;99.90
23347;DHT22;36852;45.466;11.066;2022-11-20T08:31:28;11.30;99.90
23347;DHT22;36852;45.466;11.066;2022-11-20T08:33:56;11.40;99.90
23347;DHT22;36852;45.466;11.066;2022-11-20T08:36:25;11.40;99.90
23347;DHT22;36852;45.466;11.066;2022-11-20T08:38:54;11.40;99.90
23347;DHT22;36852;45.466;11.066;2022-11-20T08:41:22;11.50;99.90
23347;DHT22;36852;45.466;11.066;2022-11-20T08:44:03;11.50;99.90
23347;DHT22;36852;45.466;11.066;2022-11-20T08:46:34;11.60;99.90
23347;DHT22;36852;45.466;11.066;2022-11-20T08:49:05;11.60;99.90
23347;DHT22;36852;45.466;11.066;2022-11-20T08:51:34;11.60;99.90
23347;DHT22;36852;45.466;11.066;2022-11-20T08:54:03;11.70;99.90
23347;DHT22;36852;45.466;11.066;2022-11-20T08:56:32;11.70;99.90
23347;DHT22;36852;45.466;11.066;2022-11-20T08:59:06;11.80;99.90
23347;DHT22;36852;45.466;11.066;2022-11-20T09:01:36;11.80;99.90
23347;DHT22;36852;45.466;11.066;2022-11-20T09:04:04;11.90;99.90
23347;DHT22;36852;45.466;11.066;2022-11-20T09:06:33;11.90;99.90
23347;DHT22;36852;45.466;11.066;2022-11-20T09:09:01;12.00;99.90
23347;DHT22;36852;45.466;11.066;2022-11-20T09:11:32;12.00;99.90
23347;DHT22;36852;45.466;11.066;2022-11-20T09:14:00;12.00;99.90
23347;DHT22;36852;45.466;11.066;2022-11-20T09:16:30;12.10;99.90
23347;DHT22;36852;45.466;11.066;2022-11-20T09:18:58;12.10;99.90
23347;DHT22;36852;45.466;11.066;2022-11-20T09:21:28;12.20;99.90
23347;DHT22;36852;45.466;11.066;2022-11-20T09:23:56;12.30;99.90
23347;DHT22;36852;45.466;11.066;2022-11-20T09:26:24;12.30;99.90
23347;DHT22;36852;45.466;11.066;2022-11-20T09:28:53;12.30;99.90
23347;DHT22;36852;45.466;11.066;2022-11-20T09:31:24;12.40;99.90
23347;DHT22;36852;45.466;11.066;2022-11-20T09:33:53;12.50;99.90
23347;DHT22;36852;45.466;11.066;2022-11-20T09:36:21;12.50;99.90
23347;DHT22;36852;45.466;11.066;2022-11-20T09:38:49;12.60;99.90
23347;DHT22;36852;45.466;11.066;2022-11-20T09:47:12;12.80;99.90
23347;DHT22;36852;45.466;11.066;2022-11-20T09:55:13;12.90;99.90
23347;DHT22;36852;45.466;11.066;2022-11-20T09:57:45;13.00;99.90
23347;DHT22;36852;45.466;11.066;2022-11-20T10:00:14;13.00;99.90
23347;DHT22;36852;45.466;11.066;2022-11-20T10:02:50;13.00;99.90
23347;DHT22;36852;45.466;11.066;2022-11-20T10:10:39;13.00;99.90
23347;DHT22;36852;45.466;11.066;2022-11-20T10:16:25;13.10;99.90
23347;DHT22;36852;45.466;11.066;2022-11-20T10:29:29;13.20;99.90
23347;DHT22;36852;45.466;11.066;2022-11-20T10:32:02;13.30;99.90
23347;DHT22;36852;45.466;11.066;2022-11-20T10:34:57;13.30;99.90
23347;DHT22;36852;45.466;11.066;2022-11-20T10:37:28;13.30;99.90
23347;DHT22;36852;45.466;11.066;2022-11-20T10:45:58;13.40;99.90
23347;DHT22;36852;45.466;11.066;2022-11-20T10:48:27;13.40;99.90
23347;DHT22;36852;45.466;11.066;2022-11-20T10:51:03;13.50;99.90
23347;DHT22;36852;45.466;11.066;2022-11-20T10:56:42;13.60;99.90
23347;DHT22;36852;45.466;11.066;2022-11-20T11:00:03;13.60;99.90
23347;DHT22;36852;45.466;11.066;2022-11-20T11:01:53;13.70;99.90
23347;DHT22;36852;45.466;11.066;2022-11-20T11:04:40;13.80;99.90
23347;DHT22;36852;45.466;11.066;2022-11-20T11:09:52;13.90;99.90
23347;DHT22;36852;45.466;11.066;2022-11-20T11:12:22;14.00;99.90
23347;DHT22;36852;45.466;11.066;2022-11-20T11:14:56;14.00;99.90
23347;DHT22;36852;45.466;11.066;2022-11-20T11:17:32;14.00;99.90
23347;DHT22;36852;45.466;11.066;2022-11-20T11:20:16;14.00;99.90
23347;DHT22;36852;45.466;11.066;2022-11-20T11:22:51;14.10;99.90
23347;DHT22;36852;45.466;11.066;2022-11-20T11:25:31;14.10;99.90
23347;DHT22;36852;45.466;11.066;2022-11-20T11:28:04;14.10;99.90
23347;DHT22;36852;45.466;11.066;2022-11-20T11:30:43;14.20;99.90
23347;DHT22;36852;45.466;11.066;2022-11-20T11:35:54;14.30;99.90
23347;DHT22;36852;45.466;11.066;2022-11-20T11:38:38;14.30;99.90
23347;DHT22;36852;45.466;11.066;2022-11-20T11:41:09;14.40;99.90
23347;DHT22;36852;45.466;11.066;2022-11-20T11:43:37;14.50;99.90
23347;DHT22;36852;45.466;11.066;2022-11-20T11:46:32;14.60;99.90
23347;DHT22;36852;45.466;11.066;2022-11-20T11:52:26;14.80;99.90
23347;DHT22;36852;45.466;11.066;2022-11-20T11:54:34;14.90;99.90
23347;DHT22;36852;45.466;11.066;2022-11-20T11:57:05;15.10;99.90
23347;DHT22;36852;45.466;11.066;2022-11-20T12:02:39;15.00;99.90
23347;DHT22;36852;45.466;11.066;2022-11-20T12:05:34;15.10;99.90
23347;DHT22;36852;45.466;11.066;2022-11-20T12:08:10;15.20;99.90
23347;DHT22;36852;45.466;11.066;2022-11-20T12:16:36;15.60;99.90
23347;DHT22;36852;45.466;11.066;2022-11-20T12:19:11;15.80;99.90
23347;DHT22;36852;45.466;11.066;2022-11-20T12:24:59;15.90;99.90
23347;DHT22;36852;45.466;11.066;2022-11-20T12:27:47;16.10;99.90
23347;DHT22;36852;45.466;11.066;2022-11-20T12:30:16;16.30;99.90
23347;DHT22;36852;45.466;11.066;2022-11-20T12:38:44;16.90;99.90
23347;DHT22;36852;45.466;11.066;2022-11-20T12:44:10;17.40;99.90
23347;DHT22;36852;45.466;11.066;2022-11-20T12:50:08;17.60;99.90
23347;DHT22;36852;45.466;11.066;2022-11-20T12:55:20;18.40;99.90
23347;DHT22;36852;45.466;11.066;2022-11-20T13:00:24;18.80;99.20
23347;DHT22;36852;45.466;11.066;2022-11-20T13:08:30;19.20;97.80
23347;DHT22;36852;45.466;11.066;2022-11-20T13:11:14;19.20;97.80
23347;DHT22;36852;45.466;11.066;2022-11-20T13:14:13;19.20;98.50
23347;DHT22;36852;45.466;11.066;2022-11-20T13:19:52;19.50;96.50
23347;DHT22;36852;45.466;11.066;2022-11-20T13:22:42;19.70;96.00
23347;DHT22;36852;45.466;11.066;2022-11-20T13:25:01;19.70;96.00
23347;DHT22;36852;45.466;11.066;2022-11-20T13:27:47;20.20;95.50
23347;DHT22;36852;45.466;11.066;2022-11-20T13:35:54;22.90;87.20
23347;DHT22;36852;45.466;11.066;2022-11-20T13:38:16;23.80;79.30
23347;DHT22;36852;45.466;11.066;2022-11-20T13:40:56;24.30;75.60
23347;DHT22;36852;45.466;11.066;2022-11-20T13:43:34;24.50;72.80
23347;DHT22;36852;45.466;11.066;2022-11-20T13:46:00;25.40;69.20
23347;DHT22;36852;45.466;11.066;2022-11-20T13:48:39;26.30;65.50
23347;DHT22;36852;45.466;11.066;2022-11-20T13:53:52;26.90;59.20
23347;DHT22;36852;45.466;11.066;2022-11-20T13:56:48;27.00;58.30
23347;DHT22;36852;45.466;11.066;2022-11-20T14:02:16;28.00;55.80
23347;DHT22;36852;45.466;11.066;2022-11-20T14:04:49;28.10;52.10
23347;DHT22;36852;45.466;11.066;2022-11-20T14:07:21;28.40;51.50
23347;DHT22;36852;45.466;11.066;2022-11-20T14:09:55;28.20;49.90
23347;DHT22;36852;45.466;11.066;2022-11-20T14:12:29;27.10;49.70
23347;DHT22;36852;45.466;11.066;2022-11-20T14:14:58;27.00;50.80
23347;DHT22;36852;45.466;11.066;2022-11-20T14:17:34;27.60;50.80
23347;DHT22;36852;45.466;11.066;2022-11-20T14:20:05;28.30;49.60
23347;DHT22;36852;45.466;11.066;2022-11-20T14:22:34;28.10;45.90
23347;DHT22;36852;45.466;11.066;2022-11-20T14:25:17;28.30;47.60
23347;DHT22;36852;45.466;11.066;2022-11-20T14:27:38;28.60;46.40
23347;DHT22;36852;45.466;11.066;2022-11-20T14:30:27;28.50;46.50
23347;DHT22;36852;45.466;11.066;2022-11-20T14:32:42;28.30;45.90
23347;DHT22;36852;45.466;11.066;2022-11-20T14:35:20;28.20;46.00
23347;DHT22;36852;45.466;11.066;2022-11-20T14:37:47;28.20;45.90
23347;DHT22;36852;45.466;11.066;2022-11-20T14:40:35;28.30;45.90
23347;DHT22;36852;45.466;11.066;2022-11-20T14:43:24;28.10;45.20
23347;DHT22;36852;45.466;11.066;2022-11-20T14:45:58;28.10;45.60
23347;DHT22;36852;45.466;11.066;2022-11-20T14:51:04;28.00;45.00
23347;DHT22;36852;45.466;11.066;2022-11-20T14:53:32;27.80;45.80
23347;DHT22;36852;45.466;11.066;2022-11-20T14:56:01;27.30;45.20
23347;DHT22;36852;45.466;11.066;2022-11-20T14:58:31;26.90;46.30
23347;DHT22;36852;45.466;11.066;2022-11-20T15:01:06;26.70;47.10
23347;DHT22;36852;45.466;11.066;2022-11-20T15:03:37;26.20;46.60
23347;DHT22;36852;45.466;11.066;2022-11-20T15:06:06;25.80;47.40
23347;DHT22;36852;45.466;11.066;2022-11-20T15:08:35;25.30;47.80
23347;DHT22;36852;45.466;11.066;2022-11-20T15:11:14;24.90;49.20
23347;DHT22;36852;45.466;11.066;2022-11-20T15:13:38;24.60;49.60
23347;DHT22;36852;45.466;11.066;2022-11-20T15:16:18;24.40;50.80
23347;DHT22;36852;45.466;11.066;2022-11-20T15:18:47;24.10;52.00
23347;DHT22;36852;45.466;11.066;2022-11-20T15:21:18;23.80;52.70
23347;DHT22;36852;45.466;11.066;2022-11-20T15:23:46;23.60;54.00
23347;DHT22;36852;45.466;11.066;2022-11-20T15:26:18;23.10;53.50
23347;DHT22;36852;45.466;11.066;2022-11-20T15:28:47;22.30;54.70
23347;DHT22;36852;45.466;11.066;2022-11-20T15:31:20;21.80;57.40
23347;DHT22;36852;45.466;11.066;2022-11-20T15:33:49;21.10;58.40
23347;DHT22;36852;45.466;11.066;2022-11-20T15:36:17;20.50;60.20
23347;DHT22;36852;45.466;11.066;2022-11-20T15:38:46;19.90;63.70
23347;DHT22;36852;45.466;11.066;2022-11-20T15:41:14;19.40;66.30
23347;DHT22;36852;45.466;11.066;2022-11-20T15:43:42;19.00;68.40
23347;DHT22;36852;45.466;11.066;2022-11-20T15:46:14;18.60;70.30
23347;DHT22;36852;45.466;11.066;2022-11-20T15:48:45;18.30;73.10
23347;DHT22;36852;45.466;11.066;2022-11-20T15:51:27;17.90;75.50
23347;DHT22;36852;45.466;11.066;2022-11-20T15:53:56;17.60;78.20
23347;DHT22;36852;45.466;11.066;2022-11-20T15:56:25;17.30;81.20
23347;DHT22;36852;45.466;11.066;2022-11-20T15:58:54;17.00;84.60
23347;DHT22;36852;45.466;11.066;2022-11-20T16:01:23;16.70;88.00
23347;DHT22;36852;45.466;11.066;2022-11-20T16:03:51;16.50;92.00
23347;DHT22;36852;45.466;11.066;2022-11-20T16:06:21;16.20;94.30
23347;DHT22;36852;45.466;11.066;2022-11-20T16:08:48;16.00;95.10
23347;DHT22;36852;45.466;11.066;2022-11-20T16:11:17;15.80;96.20
23347;DHT22;36852;45.466;11.066;2022-11-20T16:13:46;15.70;97.30
23347;DHT22;36852;45.466;11.066;2022-11-20T16:16:33;15.50;98.20
23347;DHT22;36852;45.466;11.066;2022-11-20T16:19:03;15.40;99.60
23347;DHT22;36852;45.466;11.066;2022-11-20T16:21:31;15.30;99.90
23347;DHT22;36852;45.466;11.066;2022-11-20T16:24:04;15.10;99.90
23347;DHT22;36852;45.466;11.066;2022-11-20T16:26:33;15.00;99.90
23347;DHT22;36852;45.466;11.066;2022-11-20T16:29:02;14.90;99.90
23347;DHT22;36852;45.466;11.066;2022-11-20T16:31:31;14.70;99.90
23347;DHT22;36852;45.466;11.066;2022-11-20T16:34:06;14.70;99.90
23347;DHT22;36852;45.466;11.066;2022-11-20T16:36:41;14.60;99.90
23347;DHT22;36852;45.466;11.066;2022-11-20T16:39:12;14.60;99.90
23347;DHT22;36852;45.466;11.066;2022-11-20T16:41:42;14.40;99.90
23347;DHT22;36852;45.466;11.066;2022-11-20T16:44:10;14.30;99.90
23347;DHT22;36852;45.466;11.066;2022-11-20T16:46:38;14.30;99.90
23347;DHT22;36852;45.466;11.066;2022-11-20T16:49:12;14.20;99.90
23347;DHT22;36852;45.466;11.066;2022-11-20T16:51:40;14.10;99.90
23347;DHT22;36852;45.466;11.066;2022-11-20T16:54:09;14.10;99.90
23347;DHT22;36852;45.466;11.066;2022-11-20T16:56:39;14.00;99.90
23347;DHT22;36852;45.466;11.066;2022-11-20T16:59:07;13.90;99.90
23347;DHT22;36852;45.466;11.066;2022-11-20T17:01:35;13.80;99.90
23347;DHT22;36852;45.466;11.066;2022-11-20T17:04:05;13.80;99.90
23347;DHT22;36852;45.466;11.066;2022-11-20T17:06:35;13.70;99.90
23347;DHT22;36852;45.466;11.066;2022-11-20T17:09:04;13.70;99.90
23347;DHT22;36852;45.466;11.066;2022-11-20T17:11:32;13.70;99.90
23347;DHT22;36852;45.466;11.066;2022-11-20T17:14:03;13.60;99.90
23347;DHT22;36852;45.466;11.066;2022-11-20T17:16:35;13.60;99.90
23347;DHT22;36852;45.466;11.066;2022-11-20T17:19:04;13.50;99.90
23347;DHT22;36852;45.466;11.066;2022-11-20T17:21:33;13.50;99.90
23347;DHT22;36852;45.466;11.066;2022-11-20T17:24:07;13.50;99.90